Time;durP1;ratioP1;P1;durP2;ratioP2;P2;SDS_P1;SDS_P2;PMS_P1;PMS_P2;Temp;Humidity;BMP_temperature;BMP_pressure;BME280_temperature;BME280_humidity;BME280_pressure;Samples;Min_cycle;Max_cycle;Signal;HPM_P1;HPM_P2
2023/02/20 00:01:33;;;;;;;;;8.00;7.00;28.30;34.20;;;;;;110076;1250;56201;-66
2023/02/20 00:04:00;;;;;;;;;9.33;8.33;28.20;34.00;;;;;;110104;1250;54163;-66
2023/02/20 00:06:27;;;;;;;;;8.00;7.00;28.20;34.00;;;;;;110130;1254;49665;-67
2023/02/20 00:08:54;;;;;;;;;9.00;8.00;28.20;34.00;;;;;;110057;1250;48393;-65
2023/02/20 00:11:21;;;;;;;;;8.00;7.00;28.20;33.50;;;;;;110017;1254;46071;-66
2023/02/20 00:13:48;;;;;;;;;8.00;7.00;28.10;33.90;;;;;;110041;1250;55901;-66
2023/02/20 00:16:15;;;;;;;;;9.00;8.00;28.10;33.90;;;;;;110118;1254;53967;-66
2023/02/20 00:18:44;;;;;;;;;9.50;7.00;28.10;33.90;;;;;;110134;1250;49406;-66
2023/02/20 00:21:10;;;;;;;;;8.00;7.00;28.10;33.90;;;;;;110074;1254;49202;-67
2023/02/20 00:23:37;;;;;;;;;8.00;7.00;28.00;34.30;;;;;;110081;1250;45755;-67
2023/02/20 00:26:11;;;;;;;;;8.00;7.00;28.00;34.00;;;;;;110058;1250;55836;-65
2023/02/20 00:28:39;;;;;;;;;8.50;7.50;27.90;34.00;;;;;;110072;1254;55053;-67
2023/02/20 00:31:07;;;;;;;;;8.00;7.00;27.90;33.70;;;;;;110080;1250;48874;-66
2023/02/20 00:33:35;;;;;;;;;10.00;8.00;27.80;33.60;;;;;;110000;1253;48553;-66
2023/02/20 00:36:03;;;;;;;;;9.00;8.00;27.80;33.70;;;;;;110077;1250;46732;-66
2023/02/20 00:38:30;;;;;;;;;8.00;7.00;27.80;33.70;;;;;;110073;1254;56077;-67
2023/02/20 00:40:57;;;;;;;;;9.00;8.00;27.70;33.60;;;;;;110074;1254;54296;-68
2023/02/20 00:43:24;;;;;;;;;9.00;8.00;27.70;34.20;;;;;;110099;1250;49373;-68
2023/02/20 00:45:51;;;;;;;;;8.00;6.67;27.60;33.60;;;;;;110144;1254;49054;-67
2023/02/20 00:48:18;;;;;;;;;8.67;7.67;27.60;33.80;;;;;;110009;1256;45983;-66
2023/02/20 00:50:45;;;;;;;;;8.00;7.00;27.60;33.60;;;;;;110215;1250;56112;-68
2023/02/20 00:53:11;;;;;;;;;8.00;7.00;27.50;33.50;;;;;;110160;1255;53814;-67
2023/02/20 00:55:38;;;;;;;;;8.00;6.50;27.50;33.70;;;;;;110235;1251;49907;-65
2023/02/20 00:58:06;;;;;;;;;9.00;7.50;27.40;33.70;;;;;;110131;1251;49353;-69
2023/02/20 01:00:33;;;;;;;;;9.00;7.50;27.40;33.50;;;;;;110184;1250;45381;-67
2023/02/20 01:03:00;;;;;;;;;11.00;9.00;27.30;33.40;;;;;;110102;1254;55599;-66
2023/02/20 01:05:27;;;;;;;;;8.00;7.00;27.30;33.50;;;;;;110167;1254;54560;-66
2023/02/20 01:07:54;;;;;;;;;8.00;7.00;27.20;33.40;;;;;;110148;1250;50085;-66
2023/02/20 01:10:21;;;;;;;;;9.67;7.67;27.20;33.40;;;;;;110180;1254;49210;-66
2023/02/20 01:12:47;;;;;;;;;10.00;9.00;27.10;33.40;;;;;;110097;1252;45765;-67
2023/02/20 01:15:15;;;;;;;;;9.00;8.00;27.10;33.50;;;;;;110109;1250;55945;-66
2023/02/20 01:17:42;;;;;;;;;8.00;7.00;27.00;33.40;;;;;;110053;1250;53354;-66
2023/02/20 01:20:10;;;;;;;;;8.00;7.00;26.90;33.30;;;;;;110061;1251;48734;-67
2023/02/20 01:22:37;;;;;;;;;10.00;6.00;26.90;33.30;;;;;;110013;1253;48571;-66
2023/02/20 01:25:04;;;;;;;;;7.33;6.33;26.80;33.20;;;;;;110085;1250;45680;-66
2023/02/20 01:27:32;;;;;;;;;8.00;7.00;26.80;33.20;;;;;;110062;1250;55078;-66
2023/02/20 01:29:59;;;;;;;;;8.67;7.67;26.80;33.50;;;;;;110041;1254;53265;-66
2023/02/20 01:32:26;;;;;;;;;10.00;8.50;26.70;33.50;;;;;;110106;1254;49063;-66
2023/02/20 01:34:53;;;;;;;;;9.00;8.00;26.70;33.70;;;;;;110152;1254;50170;-67
2023/02/20 01:37:20;;;;;;;;;10.00;9.00;26.60;33.10;;;;;;110184;1250;45652;-67
2023/02/20 01:39:47;;;;;;;;;8.00;7.00;26.50;33.10;;;;;;110066;1250;55489;-67
2023/02/20 01:42:21;;;;;;;;;9.00;8.00;26.50;33.30;;;;;;110099;1250;54087;-66
2023/02/20 01:44:48;;;;;;;;;9.00;8.00;26.50;33.10;;;;;;110029;1256;49413;-65
2023/02/20 01:47:17;;;;;;;;;10.00;8.00;26.40;33.10;;;;;;110006;1256;48544;-66
2023/02/20 01:49:48;;;;;;;;;10.00;9.00;26.40;33.10;;;;;;110061;1254;45765;-66
2023/02/20 01:52:20;;;;;;;;;11.00;8.00;26.40;33.10;;;;;;110128;1250;55716;-65
2023/02/20 01:55:11;;;;;;;;;8.50;7.50;26.30;33.10;;;;;;109981;1252;54402;-67
2023/02/20 01:57:41;;;;;;;;;10.00;9.00;26.30;33.10;;;;;;110097;1254;49646;-68
2023/02/20 02:00:13;;;;;;;;;10.00;9.00;26.20;33.10;;;;;;110087;1250;49572;-68
2023/02/20 02:02:44;;;;;;;;;10.00;9.00;26.20;33.20;;;;;;110078;1253;45793;-68
2023/02/20 02:05:12;;;;;;;;;9.00;8.00;26.10;33.20;;;;;;110293;1250;55767;-68
2023/02/20 02:07:39;;;;;;;;;9.50;8.00;26.00;33.10;;;;;;110231;1251;53692;-68
2023/02/20 02:10:10;;;;;;;;;8.50;7.00;25.90;33.10;;;;;;110220;1255;50061;-68
2023/02/20 02:12:38;;;;;;;;;9.00;7.00;25.80;33.40;;;;;;110258;1255;48505;-67
2023/02/20 02:15:16;;;;;;;;;9.00;7.33;25.70;33.20;;;;;;110012;1253;46286;-66
2023/02/20 02:17:58;;;;;;;;;8.50;6.50;25.60;33.30;;;;;;110213;1250;56503;-65
2023/02/20 02:20:44;;;;;;;;;12.00;9.00;25.60;33.40;;;;;;110221;1251;54548;-65
2023/02/20 02:23:38;;;;;;;;;11.00;10.00;25.50;33.70;;;;;;110089;1253;48911;-66
2023/02/20 02:26:11;;;;;;;;;12.00;8.00;25.50;33.50;;;;;;110211;1250;50410;-67
2023/02/20 02:29:03;;;;;;;;;10.00;9.00;25.40;33.60;;;;;;110071;1254;45539;-66
2023/02/20 02:31:45;;;;;;;;;9.00;8.00;25.40;33.60;;;;;;110191;1250;56845;-67
2023/02/20 02:34:34;;;;;;;;;9.67;7.67;25.30;33.60;;;;;;110119;1250;53877;-66
2023/02/20 02:37:27;;;;;;;;;9.00;7.50;25.20;33.90;;;;;;110072;1250;49395;-65
2023/02/20 02:40:02;;;;;;;;;9.00;8.00;25.10;34.20;;;;;;109827;1250;48970;-66
2023/02/20 02:42:59;;;;;;;;;8.50;7.50;25.10;33.70;;;;;;110088;1250;45763;-66
2023/02/20 02:45:34;;;;;;;;;9.67;7.67;25.10;33.70;;;;;;110135;1250;55830;-66
2023/02/20 02:48:07;;;;;;;;;9.50;8.00;25.00;33.70;;;;;;110033;1251;53526;-67
2023/02/20 02:50:37;;;;;;;;;10.00;9.00;25.00;33.70;;;;;;110089;1250;48953;-67
2023/02/20 02:53:07;;;;;;;;;9.33;8.33;24.90;33.70;;;;;;110082;1250;49648;-67
2023/02/20 02:55:34;;;;;;;;;10.00;9.00;24.90;33.80;;;;;;110101;1250;46792;-66
2023/02/20 02:58:04;;;;;;;;;10.00;9.00;24.80;33.80;;;;;;110065;1251;56362;-66
2023/02/20 03:00:38;;;;;;;;;9.50;8.75;24.80;33.90;;;;;;110042;1254;53443;-67
2023/02/20 03:03:19;;;;;;;;;10.00;9.00;24.70;34.00;;;;;;110028;1250;49057;-68
2023/02/20 03:05:57;;;;;;;;;10.00;9.00;24.70;34.10;;;;;;110167;1254;49695;-70
2023/02/20 03:08:37;;;;;;;;;10.00;8.50;24.70;34.20;;;;;;110050;1254;45432;-67
2023/02/20 03:11:11;;;;;;;;;9.50;8.00;24.60;33.90;;;;;;110232;1251;56017;-68
2023/02/20 03:16:49;;;;;;;;;9.00;8.00;24.50;34.20;;;;;;110072;1250;49684;-67
2023/02/20 03:19:25;;;;;;;;;10.00;8.00;24.50;33.60;;;;;;110117;1250;49058;-66
2023/02/20 03:21:53;;;;;;;;;10.00;9.00;24.40;34.20;;;;;;110076;1254;46390;-67
2023/02/20 03:24:23;;;;;;;;;10.00;8.00;24.40;34.00;;;;;;109971;1253;56624;-67
2023/02/20 03:26:52;;;;;;;;;11.75;8.00;24.40;34.10;;;;;;110116;1254;55225;-66
2023/02/20 03:29:26;;;;;;;;;11.00;8.00;24.30;34.10;;;;;;110062;1254;50574;-67
2023/02/20 03:43:24;;;;;;;;;10.50;9.00;24.10;34.20;;;;;;110046;1254;50614;-67
2023/02/20 03:45:55;;;;;;;;;9.50;8.50;24.00;34.10;;;;;;110137;1254;49916;-67
2023/02/20 03:48:34;;;;;;;;;11.00;9.00;24.00;34.20;;;;;;110114;1254;44916;-67
2023/02/20 03:51:13;;;;;;;;;11.00;9.50;24.00;34.20;;;;;;110060;1254;55289;-67
2023/02/20 03:53:42;;;;;;;;;9.67;8.67;23.90;34.70;;;;;;109952;1253;54215;-67
2023/02/20 03:56:18;;;;;;;;;11.00;9.00;23.80;34.20;;;;;;110020;1254;49697;-66
2023/02/20 03:58:51;;;;;;;;;9.00;8.00;23.80;34.20;;;;;;110113;1250;50021;-66
2023/02/20 04:01:21;;;;;;;;;10.00;8.00;23.80;34.30;;;;;;110082;1254;45538;-67
2023/02/20 04:03:49;;;;;;;;;10.00;8.67;23.80;34.30;;;;;;110129;1250;55288;-66
2023/02/20 04:06:17;;;;;;;;;9.00;8.00;23.70;34.20;;;;;;110119;1250;54597;-66
2023/02/20 04:08:52;;;;;;;;;10.00;9.00;23.70;34.30;;;;;;110126;1250;49713;-66
2023/02/20 04:11:24;;;;;;;;;10.00;8.00;23.60;34.20;;;;;;110077;1250;50355;-67
2023/02/20 04:13:53;;;;;;;;;11.00;9.50;23.60;34.30;;;;;;110078;1254;46018;-67
2023/02/20 04:16:21;;;;;;;;;10.00;8.00;23.60;34.40;;;;;;110100;1250;56323;-66
2023/02/20 04:18:48;;;;;;;;;10.67;9.00;23.50;34.30;;;;;;110128;1250;53667;-67
2023/02/20 04:21:42;;;;;;;;;10.50;8.75;23.50;34.50;;;;;;109976;1253;49958;-67
2023/02/20 04:24:29;;;;;;;;;9.00;7.00;23.50;34.30;;;;;;109997;1254;49305;-68
2023/02/20 04:26:56;;;;;;;;;9.50;7.00;23.40;34.20;;;;;;110085;1252;46064;-67
2023/02/20 04:29:24;;;;;;;;;9.00;8.00;23.40;34.30;;;;;;109992;1251;55372;-66
2023/02/20 04:31:51;;;;;;;;;11.50;10.00;23.40;34.50;;;;;;110087;1250;53517;-67
2023/02/20 04:34:18;;;;;;;;;11.50;9.00;23.30;34.50;;;;;;110246;1250;49244;-66
2023/02/20 04:36:45;;;;;;;;;11.50;9.00;23.30;34.40;;;;;;109852;1250;49970;-66
2023/02/20 04:39:11;;;;;;;;;10.00;8.67;23.30;34.40;;;;;;110000;1251;45649;-67
2023/02/20 04:41:38;;;;;;;;;10.00;9.00;23.30;34.60;;;;;;110083;1254;56637;-66
2023/02/20 04:46:51;;;;;;;;;10.50;9.00;23.20;34.60;;;;;;109901;1250;49996;-68
2023/02/20 04:49:18;;;;;;;;;9.00;8.00;23.10;34.50;;;;;;110049;1250;48954;-66
2023/02/20 04:51:45;;;;;;;;;11.00;9.00;23.10;34.40;;;;;;110073;1254;45302;-68
2023/02/20 04:54:12;;;;;;;;;10.75;9.00;23.10;34.40;;;;;;110034;1254;56084;-68
2023/02/20 04:56:39;;;;;;;;;10.00;9.00;23.00;34.40;;;;;;109858;1250;55009;-66
2023/02/20 04:59:06;;;;;;;;;10.00;8.50;23.00;34.40;;;;;;110092;1250;50163;-66
2023/02/20 05:01:33;;;;;;;;;10.50;9.00;23.00;34.50;;;;;;110045;1250;50384;-67
2023/02/20 05:04:00;;;;;;;;;10.50;9.00;23.00;34.50;;;;;;110072;1253;45822;-68
2023/02/20 05:06:27;;;;;;;;;10.00;8.00;22.90;34.40;;;;;;109831;1250;56604;-68
2023/02/20 05:08:55;;;;;;;;;10.67;7.67;22.90;34.50;;;;;;110049;1251;54129;-68
2023/02/20 05:11:22;;;;;;;;;;;22.90;34.40;;;;;;110057;1254;49975;-69
2023/02/20 05:13:49;;;;;;;;;10.00;9.00;22.90;34.40;;;;;;109995;1254;50049;-68
2023/02/20 05:16:16;;;;;;;;;9.00;8.00;22.80;34.40;;;;;;109922;1250;46835;-69
2023/02/20 05:18:44;;;;;;;;;11.00;9.00;22.80;34.40;;;;;;110090;1250;55822;-67
2023/02/20 05:24:00;;;;;;;;;11.00;8.00;22.80;34.50;;;;;;109962;1254;50383;-68
2023/02/20 05:26:27;;;;;;;;;9.00;8.00;22.80;34.50;;;;;;109893;1251;50304;-68
2023/02/20 05:28:54;;;;;;;;;9.00;7.00;22.80;34.60;;;;;;110168;1250;46153;-67
2023/02/20 05:31:21;;;;;;;;;10.50;7.50;22.70;34.60;;;;;;110097;1254;55380;-67
2023/02/20 05:33:48;;;;;;;;;11.00;9.00;22.70;34.40;;;;;;110065;1250;53845;-66
2023/02/20 05:36:16;;;;;;;;;9.00;7.67;22.70;34.50;;;;;;109882;1250;49319;-66
2023/02/20 05:38:46;;;;;;;;;9.00;8.00;22.70;34.50;;;;;;110118;1254;49582;-66
2023/02/20 05:41:15;;;;;;;;;10.00;9.00;22.70;34.50;;;;;;110123;1250;45554;-63
2023/02/20 05:43:42;;;;;;;;;8.00;6.33;22.70;34.60;;;;;;109944;1254;56730;-66
2023/02/20 05:46:09;;;;;;;;;11.00;9.00;22.70;35.20;;;;;;109846;1250;53794;-69
2023/02/20 05:48:36;;;;;;;;;11.00;9.33;22.70;36.30;;;;;;110383;1254;49292;-65
2023/02/20 05:51:03;;;;;;;;;13.00;11.33;22.70;35.90;;;;;;110191;1250;50680;-64
2023/02/20 05:53:30;;;;;;;;;12.00;11.00;22.70;35.40;;;;;;110037;1250;45377;-63
2023/02/20 05:55:57;;;;;;;;;13.00;11.00;22.80;35.20;;;;;;109805;1250;56095;-63
2023/02/20 05:58:24;;;;;;;;;9.50;8.00;22.80;35.10;;;;;;110025;1254;54803;-70
2023/02/20 06:00:51;;;;;;;;;14.00;9.00;22.90;35.00;;;;;;110270;1254;49717;-67
2023/02/20 06:03:18;;;;;;;;;13.00;10.00;22.90;34.80;;;;;;110002;1254;49088;-67
2023/02/20 06:05:45;;;;;;;;;13.00;11.00;23.00;35.00;;;;;;109931;1250;46355;-67
2023/02/20 06:08:12;;;;;;;;;10.67;9.00;23.00;34.70;;;;;;110045;1254;56066;-67
2023/02/20 06:10:39;;;;;;;;;12.33;9.00;23.00;34.50;;;;;;110124;1254;54185;-68
2023/02/20 06:13:07;;;;;;;;;11.00;10.00;23.10;34.50;;;;;;110217;1250;49730;-68
2023/02/20 06:15:34;;;;;;;;;12.00;9.00;23.10;35.00;;;;;;110342;1250;49505;-67
2023/02/20 06:18:01;;;;;;;;;11.00;10.00;23.10;34.40;;;;;;110049;1250;45665;-68
2023/02/20 06:20:28;;;;;;;;;10.00;8.00;23.10;34.30;;;;;;110073;1251;55501;-67
2023/02/20 06:22:56;;;;;;;;;11.00;8.00;23.10;34.20;;;;;;110033;1254;54379;-70
2023/02/20 06:25:23;;;;;;;;;11.33;8.00;23.10;34.10;;;;;;110548;1250;49541;-66
2023/02/20 06:27:50;;;;;;;;;11.00;10.00;23.20;34.20;;;;;;110012;1250;48846;-67
2023/02/20 06:30:17;;;;;;;;;10.00;8.00;23.20;34.10;;;;;;110094;1254;46037;-66
2023/02/20 06:32:44;;;;;;;;;11.00;9.00;23.30;34.10;;;;;;110191;1250;55863;-67
2023/02/20 06:35:11;;;;;;;;;10.00;9.00;23.30;34.10;;;;;;109272;1250;704284;-67
2023/02/20 06:37:38;;;;;;;;;12.00;11.00;23.30;34.00;;;;;;110085;1254;49975;-65
2023/02/20 06:40:06;;;;;;;;;14.00;9.00;23.30;33.90;;;;;;110022;1254;49893;-67
2023/02/20 06:42:32;;;;;;;;;10.00;9.00;23.30;33.90;;;;;;110177;1250;45746;-68
2023/02/20 06:44:59;;;;;;;;;11.00;10.00;23.30;33.90;;;;;;110542;1250;55489;-66
2023/02/20 06:47:26;;;;;;;;;10.00;9.00;23.30;33.90;;;;;;110032;1254;54215;-69
2023/02/20 06:49:53;;;;;;;;;12.00;10.00;23.30;33.80;;;;;;110367;1254;50077;-66
2023/02/20 06:52:20;;;;;;;;;14.00;9.75;23.30;33.80;;;;;;110060;1250;49152;-67
2023/02/20 06:54:47;;;;;;;;;11.00;8.00;23.30;33.90;;;;;;109989;1254;45976;-67
2023/02/20 06:57:14;;;;;;;;;10.33;9.00;23.30;33.70;;;;;;109916;1254;55934;-66
2023/02/20 06:59:46;;;;;;;;;11.00;9.00;23.30;33.70;;;;;;110142;1254;53771;-67
2023/02/20 07:02:14;;;;;;;;;11.00;10.00;23.30;33.70;;;;;;110124;1254;49534;-66
2023/02/20 07:04:41;;;;;;;;;16.00;9.00;23.30;33.70;;;;;;109877;1256;49384;-65
2023/02/20 07:07:08;;;;;;;;;10.00;8.00;23.30;33.90;;;;;;109878;1250;45771;-67
2023/02/20 07:09:35;;;;;;;;;10.00;9.00;23.30;33.60;;;;;;109996;1250;56862;-66
2023/02/20 07:12:02;;;;;;;;;13.00;9.00;23.30;33.70;;;;;;110018;1254;54398;-65
2023/02/20 07:14:29;;;;;;;;;10.00;9.00;23.30;33.60;;;;;;110057;1254;49810;-67
2023/02/20 07:16:56;;;;;;;;;10.00;9.00;23.30;33.70;;;;;;109798;1250;49331;-71
2023/02/20 07:19:23;;;;;;;;;20.50;14.00;23.40;34.00;;;;;;110029;1254;45673;-67
2023/02/20 07:21:50;;;;;;;;;14.00;12.00;23.40;34.50;;;;;;110090;1254;55796;-66
2023/02/20 07:24:17;;;;;;;;;13.00;11.00;23.40;34.60;;;;;;109989;1254;53677;-67
2023/02/20 07:26:44;;;;;;;;;15.00;12.00;23.50;35.70;;;;;;109909;1250;49499;-65
2023/02/20 07:29:12;;;;;;;;;13.33;11.00;23.50;35.60;;;;;;110029;1250;49745;-66
2023/02/20 07:31:39;;;;;;;;;13.67;11.67;23.50;36.10;;;;;;110072;1250;46117;-67
2023/02/20 07:34:07;;;;;;;;;15.00;11.50;23.60;36.30;;;;;;109912;1256;55824;-67
2023/02/20 07:36:34;;;;;;;;;15.00;12.50;23.60;37.50;;;;;;109826;1254;54024;-69
2023/02/20 07:39:02;;;;;;;;;15.00;14.00;23.60;37.40;;;;;;110038;1250;49955;-67
2023/02/20 07:41:34;;;;;;;;;17.50;15.00;23.60;37.90;;;;;;110057;1250;49583;-63
2023/02/20 07:44:02;;;;;;;;;14.75;12.00;23.60;37.50;;;;;;110020;1250;46253;-65
2023/02/20 07:46:32;;;;;;;;;15.00;11.67;23.70;37.50;;;;;;109733;1251;56025;-66
2023/02/20 07:49:03;;;;;;;;;17.00;12.00;23.70;37.40;;;;;;110051;1251;54848;-66
2023/02/20 07:51:31;;;;;;;;;14.00;12.50;23.80;37.40;;;;;;110059;1252;49936;-66
2023/02/20 07:53:58;;;;;;;;;17.00;14.00;23.80;37.20;;;;;;110343;1254;48913;-64
2023/02/20 07:56:25;;;;;;;;;14.00;12.00;23.80;37.60;;;;;;110017;1250;45419;-65
2023/02/20 07:58:52;;;;;;;;;17.00;14.00;23.80;37.70;;;;;;110300;1250;56361;-67
2023/02/20 08:01:19;;;;;;;;;22.50;15.75;23.90;37.70;;;;;;110104;1251;54069;-66
2023/02/20 08:03:47;;;;;;;;;12.00;11.00;23.90;37.60;;;;;;110099;1250;49433;-65
2023/02/20 08:06:17;;;;;;;;;15.50;11.50;23.90;37.30;;;;;;109826;1250;49563;-65
2023/02/20 08:08:49;;;;;;;;;16.00;12.00;23.80;37.20;;;;;;110247;1253;45498;-65
2023/02/20 08:11:17;;;;;;;;;13.00;11.00;23.90;36.80;;;;;;109985;1253;55680;-64
2023/02/20 08:13:44;;;;;;;;;17.00;11.00;23.90;37.60;;;;;;109929;1256;55412;-67
2023/02/20 08:16:12;;;;;;;;;15.00;13.00;23.90;37.60;;;;;;110513;1252;49418;-67
2023/02/20 08:18:39;;;;;;;;;17.00;12.00;23.90;37.50;;;;;;110245;1256;50132;-67
2023/02/20 08:21:06;;;;;;;;;16.00;11.67;24.00;37.20;;;;;;110191;1252;45592;-65
2023/02/20 08:23:33;;;;;;;;;13.00;11.00;24.00;37.30;;;;;;110108;1256;56239;-66
2023/02/20 08:26:02;;;;;;;;;17.00;10.00;24.00;37.20;;;;;;109786;1257;53383;-67
2023/02/20 08:28:29;;;;;;;;;14.00;11.00;24.00;37.20;;;;;;110080;1256;51113;-71
2023/02/20 08:30:56;;;;;;;;;14.00;12.00;24.10;37.30;;;;;;110176;1256;49154;-75
2023/02/20 08:33:23;;;;;;;;;15.25;11.75;24.20;37.30;;;;;;110167;1252;46322;-69
2023/02/20 08:35:52;;;;;;;;;11.00;10.00;24.20;37.40;;;;;;109940;1256;56333;-67
2023/02/20 08:38:34;;;;;;;;;14.00;13.00;24.20;37.20;;;;;;110028;1251;54434;-67
2023/02/20 08:41:04;;;;;;;;;12.00;10.00;24.20;37.20;;;;;;110008;1251;50603;-64
2023/02/20 08:43:31;;;;;;;;;13.75;12.25;24.30;37.10;;;;;;110126;1253;49891;-63
2023/02/20 08:45:58;;;;;;;;;17.33;13.00;24.30;37.00;;;;;;109767;1255;46607;-62
2023/02/20 08:48:25;;;;;;;;;16.50;11.00;24.30;37.00;;;;;;110085;1251;55967;-63
2023/02/20 08:50:52;;;;;;;;;15.00;12.00;24.30;37.00;;;;;;110112;1251;53435;-65
2023/02/20 08:53:20;;;;;;;;;14.50;12.00;24.30;36.90;;;;;;110050;1253;49097;-64
2023/02/20 08:55:47;;;;;;;;;11.00;10.00;24.30;37.00;;;;;;109718;1256;49337;-64
2023/02/20 08:58:21;;;;;;;;;15.67;11.00;24.30;37.00;;;;;;110064;1251;45895;-61
2023/02/20 09:00:49;;;;;;;;;11.00;10.00;24.30;37.10;;;;;;110068;1253;55450;-65
2023/02/20 09:03:16;;;;;;;;;10.50;9.50;24.30;36.90;;;;;;109983;1250;54127;-65
2023/02/20 09:05:43;;;;;;;;;12.50;11.00;24.30;36.90;;;;;;109819;1251;50022;-66
2023/02/20 09:08:11;;;;;;;;;12.00;11.00;24.30;37.20;;;;;;109939;1256;50023;-65
2023/02/20 09:10:37;;;;;;;;;16.00;13.50;24.30;36.90;;;;;;110071;1254;46168;-67
2023/02/20 09:13:04;;;;;;;;;11.00;9.00;24.40;37.00;;;;;;110030;1250;55824;-63
2023/02/20 09:15:37;;;;;;;;;13.00;10.25;24.40;37.00;;;;;;109838;1254;53460;-66
2023/02/20 09:18:11;;;;;;;;;11.00;10.00;24.40;37.00;;;;;;110090;1250;50441;-65
2023/02/20 09:20:38;;;;;;;;;10.00;8.00;24.40;36.80;;;;;;109947;1253;49800;-65
2023/02/20 09:23:06;;;;;;;;;14.50;10.50;24.40;36.80;;;;;;110020;1250;46245;-66
2023/02/20 09:25:33;;;;;;;;;11.00;10.00;24.40;36.90;;;;;;109927;1250;55856;-63
2023/02/20 09:28:00;;;;;;;;;13.00;10.00;24.40;36.90;;;;;;110046;1250;54096;-63
2023/02/20 09:30:27;;;;;;;;;12.00;11.00;24.40;36.70;;;;;;110120;1250;50245;-65
2023/02/20 09:32:54;;;;;;;;;9.50;8.50;24.40;36.80;;;;;;110041;1250;49214;-67
2023/02/20 09:35:22;;;;;;;;;17.00;11.67;24.50;36.70;;;;;;109891;1254;45592;-65
2023/02/20 09:37:50;;;;;;;;;10.00;9.00;24.50;36.70;;;;;;110094;1250;55544;-67
2023/02/20 09:40:22;;;;;;;;;11.00;10.00;24.50;36.90;;;;;;110100;1250;53529;-66
2023/02/20 09:43:01;;;;;;;;;11.00;9.00;24.50;36.50;;;;;;110062;1253;50624;-69
2023/02/20 09:45:31;;;;;;;;;11.33;10.00;24.50;36.50;;;;;;109949;1254;49758;-65
2023/02/20 09:47:58;;;;;;;;;9.50;8.00;24.50;36.50;;;;;;110052;1254;45475;-64
2023/02/20 09:50:44;;;;;;;;;12.00;11.00;24.60;36.50;;;;;;110040;1250;56125;-64
2023/02/20 09:53:22;;;;;;;;;13.00;11.00;24.60;36.50;;;;;;110060;1251;55079;-66
2023/02/20 09:55:50;;;;;;;;;13.00;12.00;24.50;36.30;;;;;;109991;1250;49428;-68
2023/02/20 09:58:41;;;;;;;;;13.33;9.33;24.50;36.40;;;;;;110260;1254;49109;-63
2023/02/20 10:01:10;;;;;;;;;10.50;9.00;24.60;36.60;;;;;;109798;1254;45811;-64
2023/02/20 10:03:48;;;;;;;;;14.67;11.00;24.70;37.00;;;;;;110164;1250;56769;-67
2023/02/20 10:06:18;;;;;;;;;12.50;11.00;24.70;36.60;;;;;;109965;1250;54069;-67
2023/02/20 10:08:48;;;;;;;;;11.67;9.00;24.80;36.30;;;;;;110311;1250;49913;-67
2023/02/20 10:11:40;;;;;;;;;11.00;10.00;24.80;36.10;;;;;;110184;1250;49462;-67
2023/02/20 10:14:55;;;;;;;;;11.00;9.00;24.80;36.30;;;;;;109879;1254;46730;-65
2023/02/20 10:17:36;;;;;;;;;14.00;9.00;24.80;36.10;;;;;;109679;1254;55922;-66
2023/02/20 10:20:19;;;;;;;;;11.00;10.00;24.80;36.10;;;;;;110128;1250;53422;-67
2023/02/20 10:23:17;;;;;;;;;10.67;9.67;24.80;36.00;;;;;;109992;1253;49627;-65
2023/02/20 10:25:49;;;;;;;;;11.00;10.00;24.80;36.00;;;;;;109907;1250;50429;-63
2023/02/20 10:28:18;;;;;;;;;12.00;10.50;24.80;36.10;;;;;;110143;1254;45987;-65
2023/02/20 10:30:54;;;;;;;;;12.00;11.00;24.90;35.90;;;;;;110035;1250;55416;-67
2023/02/20 10:33:41;;;;;;;;;12.00;10.33;24.90;35.90;;;;;;110215;1254;53504;-65
2023/02/20 10:36:24;;;;;;;;;10.00;9.00;24.90;36.20;;;;;;110678;1250;49646;-69
2023/02/20 10:39:09;;;;;;;;;10.50;9.50;24.90;36.00;;;;;;110230;1250;49065;-67
2023/02/20 10:41:44;;;;;;;;;11.00;9.00;24.90;36.10;;;;;;110080;1254;45999;-67
2023/02/20 10:44:14;;;;;;;;;13.00;11.00;24.90;35.90;;;;;;110046;1250;55266;-67
2023/02/20 10:46:47;;;;;;;;;10.67;9.67;24.90;36.00;;;;;;109910;1252;54350;-67
2023/02/20 10:49:20;;;;;;;;;12.00;11.00;24.90;35.90;;;;;;110022;1250;49358;-69
2023/02/20 10:51:50;;;;;;;;;10.50;9.50;24.90;35.60;;;;;;110165;1253;49928;-65
2023/02/20 10:54:36;;;;;;;;;11.00;10.00;24.90;35.70;;;;;;110108;1254;45387;-66
2023/02/20 10:57:19;;;;;;;;;14.00;9.67;25.00;35.80;;;;;;109885;1250;56875;-64
2023/02/20 10:59:46;;;;;;;;;10.00;9.00;25.00;35.70;;;;;;109943;1251;54450;-66
2023/02/20 11:02:18;;;;;;;;;10.00;9.00;25.00;35.70;;;;;;110236;1249;51763;-69
2023/02/20 11:04:51;;;;;;;;;11.00;10.00;25.00;36.00;;;;;;110142;1254;51215;-68
2023/02/20 11:07:19;;;;;;;;;12.00;10.00;25.10;35.80;;;;;;110183;1256;45387;-68
2023/02/20 11:09:46;;;;;;;;;11.50;9.50;25.10;35.70;;;;;;110211;1256;55344;-68
2023/02/20 11:12:22;;;;;;;;;10.00;9.00;25.10;35.70;;;;;;110268;1250;53761;-67
2023/02/20 11:14:49;;;;;;;;;9.00;8.00;25.10;35.70;;;;;;110443;1250;49021;-68
2023/02/20 11:17:25;;;;;;;;;10.00;8.50;25.00;35.60;;;;;;110323;1250;49714;-65
2023/02/20 11:19:55;;;;;;;;;9.33;8.00;25.10;35.90;;;;;;110030;1252;46752;-65
2023/02/20 11:22:37;;;;;;;;;11.50;9.50;25.20;35.60;;;;;;110262;1254;56840;-66
2023/02/20 11:25:30;;;;;;;;;11.50;10.50;25.20;35.50;;;;;;110006;1250;53886;-65
2023/02/20 11:28:05;;;;;;;;;14.00;10.00;25.20;35.50;;;;;;109984;1250;50340;-66
2023/02/20 11:30:40;;;;;;;;;9.33;8.33;25.20;35.40;;;;;;110085;1250;48915;-71
2023/02/20 11:33:23;;;;;;;;;11.50;10.00;25.20;35.60;;;;;;110199;1252;45548;-66
2023/02/20 11:35:54;;;;;;;;;9.00;8.00;25.30;35.40;;;;;;109778;1250;56675;-66
2023/02/20 11:38:21;;;;;;;;;12.00;11.00;25.30;35.30;;;;;;109970;1251;53459;-65
2023/02/20 11:40:51;;;;;;;;;11.00;9.00;25.30;35.30;;;;;;110151;1251;49220;-63
2023/02/20 11:43:25;;;;;;;;;12.00;9.67;25.30;36.00;;;;;;110223;1250;49947;-63
2023/02/20 11:46:22;;;;;;;;;12.00;9.00;25.30;35.50;;;;;;109976;1250;45160;-61
2023/02/20 11:48:55;;;;;;;;;9.00;8.00;25.30;35.30;;;;;;109984;1256;56551;-63
2023/02/20 11:51:37;;;;;;;;;9.00;8.00;25.30;35.20;;;;;;110112;1250;53996;-63
2023/02/20 11:54:14;;;;;;;;;10.00;8.33;25.30;35.20;;;;;;110046;1251;50214;-64
2023/02/20 11:56:56;;;;;;;;;9.00;8.00;25.30;35.30;;;;;;109804;1256;48726;-63
2023/02/20 11:59:33;;;;;;;;;10.00;9.00;25.30;35.30;;;;;;110124;1254;45535;-63
2023/02/20 12:02:18;;;;;;;;;11.50;10.00;25.30;35.20;;;;;;109930;1252;56228;-63
2023/02/20 12:05:08;;;;;;;;;10.50;9.00;25.30;35.20;;;;;;110037;1254;53387;-62
2023/02/20 12:07:36;;;;;;;;;10.00;9.00;25.30;35.20;;;;;;110150;1250;49568;-66
2023/02/20 12:10:12;;;;;;;;;11.00;10.00;25.30;34.90;;;;;;110059;1256;49155;-64
2023/02/20 12:12:39;;;;;;;;;11.00;9.50;25.30;35.40;;;;;;110196;1250;45868;-65
2023/02/20 12:15:18;;;;;;;;;10.00;8.33;25.30;35.30;;;;;;109943;1254;55889;-62
2023/02/20 12:18:03;;;;;;;;;;;25.30;35.20;;;;;;110066;1252;53636;-65
2023/02/20 12:20:30;;;;;;;;;12.00;9.00;25.30;35.20;;;;;;110205;1254;49019;-63
2023/02/20 12:23:19;;;;;;;;;10.00;9.50;25.30;35.20;;;;;;110270;1254;50782;-64
2023/02/20 12:26:06;;;;;;;;;12.00;10.00;25.30;35.10;;;;;;110085;1251;45633;-62
2023/02/20 12:29:10;;;;;;;;;14.00;13.00;25.30;35.10;;;;;;110106;1254;56556;-63
2023/02/20 12:31:53;;;;;;;;;12.00;11.00;25.30;35.00;;;;;;110165;1254;54239;-62
2023/02/20 12:34:32;;;;;;;;;13.50;11.00;25.20;34.90;;;;;;110100;1250;50654;-63
2023/02/20 12:37:06;;;;;;;;;12.00;10.00;25.20;35.00;;;;;;110087;1254;49391;-62
2023/02/20 12:39:54;;;;;;;;;10.00;9.00;25.20;34.80;;;;;;110161;1250;45641;-65
2023/02/20 12:42:40;;;;;;;;;11.00;9.00;25.20;34.90;;;;;;110053;1253;57023;-63
2023/02/20 12:45:24;;;;;;;;;13.00;10.00;25.20;35.00;;;;;;110204;1254;55010;-64
2023/02/20 12:48:04;;;;;;;;;12.00;11.00;25.20;34.70;;;;;;110213;1251;49933;-64
2023/02/20 12:50:43;;;;;;;;;10.50;9.50;25.20;34.80;;;;;;110021;1253;49076;-64
2023/02/20 12:53:17;;;;;;;;;12.00;10.67;25.20;34.80;;;;;;110193;1253;45958;-63
2023/02/20 12:55:56;;;;;;;;;10.00;9.00;25.20;34.70;;;;;;110242;1254;55521;-65
2023/02/20 12:58:38;;;;;;;;;13.33;11.00;25.20;35.00;;;;;;110248;1250;53564;-65
2023/02/20 13:01:08;;;;;;;;;9.50;8.50;25.20;34.60;;;;;;110149;1251;49642;-65
2023/02/20 13:03:55;;;;;;;;;11.00;10.00;25.20;34.30;;;;;;110160;1256;49692;-62
2023/02/20 13:06:34;;;;;;;;;12.00;11.00;25.20;34.50;;;;;;110336;1250;45839;-66
2023/02/20 13:09:05;;;;;;;;;13.50;12.00;25.20;34.30;;;;;;110096;1254;55131;-65